Time,TemperatureF,DewpointF,PressureIn,WindDirection,WindDirectionDegrees,WindSpeedMPH,WindSpeedGustMPH,Humidity,HourlyPrecipIn,Conditions,Clouds,dailyrainin,SoftwareType,DateUTC
2013-06-20 00:00:00,57.6,54.7,30.10,North,0,0.0,0.0,89,-99.99,,,-99.99,PWS SA v1.10,2013-06-20 04:00:00,
2013-06-20 00:02:00,57.6,55.1,30.10,North,0,0.0,0.0,91,-99.99,,,-99.99,PWS SA v1.10,2013-06-20 04:02:00,
2013-06-20 00:04:00,57.5,55.1,30.10,North,0,0.0,0.0,91,-99.99,,,-99.99,PWS SA v1.10,2013-06-20 04:04:00,
2013-06-20 00:08:00,57.5,55.2,30.10,North,0,0.0,0.0,91,-99.99,,,-99.99,PWS SA v1.10,2013-06-20 04:08:00,
2013-06-20 00:10:00,57.5,55.3,30.10,North,0,0.0,0.0,92,-99.99,,,-99.99,PWS SA v1.10,2013-06-20 04:10:00,
2013-06-20 00:16:00,57.4,55.2,30.11,North,0,0.0,0.0,92,-99.99,,,-99.99,PWS SA v1.10,2013-06-20 04:16:00,
2013-06-20 00:22:00,57.3,55.0,30.11,North,0,0.0,0.0,91,-99.99,,,-99.99,PWS SA v1.10,2013-06-20 04:22:00,
2013-06-20 00:28:00,57.3,55.0,30.11,North,0,0.0,0.0,92,-99.99,,,-99.99,PWS SA v1.10,2013-06-20 04:28:00,
2013-06-20 00:34:00,57.3,55.3,30.11,North,0,0.0,0.0,92,-99.99,,,-99.99,PWS SA v1.10,2013-06-20 04:34:00,
2013-06-20 00:40:00,57.3,55.4,30.11,North,0,0.0,0.0,93,-99.99,,,-99.99,PWS SA v1.10,2013-06-20 04:40:00,
2013-06-20 00:46:00,57.3,55.5,30.11,North,0,0.0,0.0,93,-99.99,,,-99.99,PWS SA v1.10,2013-06-20 04:46:00,
2013-06-20 00:52:00,57.3,55.4,30.11,North,0,0.0,0.0,93,-99.99,,,-99.99,PWS SA v1.10,2013-06-20 04:52:00,
2013-06-20 00:58:00,57.2,55.4,30.11,North,0,0.0,0.0,93,-99.99,,,-99.99,PWS SA v1.10,2013-06-20 04:58:00,
2013-06-20 01:04:00,57.1,55.3,30.11,North,0,0.0,0.0,93,-99.99,,,-99.99,PWS SA v1.10,2013-06-20 05:04:00,
2013-06-20 01:10:00,57.1,55.3,30.12,North,0,0.0,0.0,93,-99.99,,,-99.99,PWS SA v1.10,2013-06-20 05:10:00,
2013-06-20 01:16:00,57.3,55.7,30.12,North,0,0.0,0.0,94,-99.99,,,-99.99,PWS SA v1.10,2013-06-20 05:16:00,
2013-06-20 01:22:00,57.3,55.9,30.11,North,0,0.0,0.0,94,-99.99,,,-99.99,PWS SA v1.10,2013-06-20 05:22:00,
2013-06-20 01:28:00,57.3,55.8,30.12,North,0,0.0,0.0,94,-99.99,,,-99.99,PWS SA v1.10,2013-06-20 05:28:00,
2013-06-20 01:34:00,57.3,55.6,30.12,North,0,0.0,0.0,93,-99.99,,,-99.99,PWS SA v1.10,2013-06-20 05:34:00,
2013-06-20 01:40:00,57.1,55.4,30.12,North,0,0.0,0.0,93,-99.99,,,-99.99,PWS SA v1.10,2013-06-20 05:40:00,
2013-06-20 01:46:00,56.9,55.5,30.12,North,0,0.0,0.0,94,-99.99,,,-99.99,PWS SA v1.10,2013-06-20 05:46:00,
2013-06-20 01:52:00,56.8,55.3,30.12,North,0,0.0,0.0,94,-99.99,,,-99.99,PWS SA v1.10,2013-06-20 05:52:00,
2013-06-20 01:58:00,56.4,55.1,30.12,North,0,0.0,0.0,94,-99.99,,,-99.99,PWS SA v1.10,2013-06-20 05:58:00,
2013-06-20 02:04:00,56.2,54.9,30.12,North,0,0.0,0.0,94,-99.99,,,-99.99,PWS SA v1.10,2013-06-20 06:04:00,
2013-06-20 02:10:00,55.9,55.0,30.12,North,0,0.0,0.0,96,-99.99,,,-99.99,PWS SA v1.10,2013-06-20 06:10:00,
2013-06-20 02:16:00,55.7,54.6,30.12,North,0,0.0,0.0,96,-99.99,,,-99.99,PWS SA v1.10,2013-06-20 06:16:00,
2013-06-20 02:22:00,55.6,54.7,30.12,North,0,0.0,0.0,96,-99.99,,,-99.99,PWS SA v1.10,2013-06-20 06:22:00,
2013-06-20 02:28:00,55.5,54.8,30.12,North,0,0.0,0.0,96,-99.99,,,-99.99,PWS SA v1.10,2013-06-20 06:28:00,
2013-06-20 02:34:00,55.4,54.5,30.12,North,0,0.0,0.0,96,-99.99,,,-99.99,PWS SA v1.10,2013-06-20 06:34:00,
2013-06-20 02:40:00,55.4,54.3,30.13,North,0,0.0,0.0,96,-99.99,,,-99.99,PWS SA v1.10,2013-06-20 06:40:00,
2013-06-20 02:46:00,55.4,54.5,30.13,North,0,0.0,0.0,97,-99.99,,,-99.99,PWS SA v1.10,2013-06-20 06:46:00,
2013-06-20 02:52:00,55.6,54.9,30.13,North,0,0.0,0.0,97,-99.99,,,-99.99,PWS SA v1.10,2013-06-20 06:52:00,
2013-06-20 02:58:00,55.4,54.7,30.13,North,0,0.0,0.0,97,-99.99,,,-99.99,PWS SA v1.10,2013-06-20 06:58:00,
2013-06-20 03:04:00,55.4,54.5,30.13,North,0,0.0,0.0,96,-99.99,,,-99.99,PWS SA v1.10,2013-06-20 07:04:00,
2013-06-20 03:10:00,55.4,54.8,30.13,North,0,0.0,0.0,97,-99.99,,,-99.99,PWS SA v1.10,2013-06-20 07:10:00,
2013-06-20 03:16:00,55.4,54.7,30.13,North,0,0.0,0.0,97,-99.99,,,-99.99,PWS SA v1.10,2013-06-20 07:16:00,
2013-06-20 03:22:00,55.1,54.3,30.13,North,0,0.0,0.0,97,-99.99,,,-99.99,PWS SA v1.10,2013-06-20 07:22:00,
2013-06-20 03:28:00,55.0,54.1,30.13,North,0,0.0,0.0,96,-99.99,,,-99.99,PWS SA v1.10,2013-06-20 07:28:00,
2013-06-20 03:34:00,54.6,54.0,30.13,North,0,0.0,0.0,97,-99.99,,,-99.99,PWS SA v1.10,2013-06-20 07:34:00,
2013-06-20 03:40:00,54.5,53.7,30.14,North,0,0.0,0.0,97,-99.99,,,-99.99,PWS SA v1.10,2013-06-20 07:40:00,
2013-06-20 03:46:00,54.3,53.7,30.13,North,0,0.0,0.0,97,-99.99,,,-99.99,PWS SA v1.10,2013-06-20 07:46:00,
2013-06-20 03:52:00,54.2,53.6,30.14,North,0,0.0,0.0,97,-99.99,,,-99.99,PWS SA v1.10,2013-06-20 07:52:00,
2013-06-20 03:58:00,54.1,53.6,30.14,North,0,0.0,0.0,98,-99.99,,,-99.99,PWS SA v1.10,2013-06-20 07:58:00,
2013-06-20 04:04:00,54.0,53.5,30.14,North,0,0.0,0.0,98,-99.99,,,-99.99,PWS SA v1.10,2013-06-20 08:04:00,
2013-06-20 04:10:00,53.9,53.5,30.14,North,0,0.0,0.0,98,-99.99,,,-99.99,PWS SA v1.10,2013-06-20 08:10:00,
2013-06-20 04:16:00,53.9,53.6,30.14,North,0,0.0,0.0,98,-99.99,,,-99.99,PWS SA v1.10,2013-06-20 08:16:00,
2013-06-20 04:22:00,53.9,53.5,30.14,North,0,0.0,0.0,98,-99.99,,,-99.99,PWS SA v1.10,2013-06-20 08:22:00,
2013-06-20 04:28:00,53.8,53.5,30.15,North,0,0.0,0.0,98,-99.99,,,-99.99,PWS SA v1.10,2013-06-20 08:28:00,
2013-06-20 04:34:00,53.7,53.2,30.15,North,0,0.0,0.0,98,-99.99,,,-99.99,PWS SA v1.10,2013-06-20 08:34:00,
2013-06-20 04:40:00,53.7,53.4,30.14,North,0,0.0,0.0,98,-99.99,,,-99.99,PWS SA v1.10,2013-06-20 08:40:00,
2013-06-20 04:46:00,53.6,53.4,30.15,North,0,0.0,0.0,98,-99.99,,,-99.99,PWS SA v1.10,2013-06-20 08:46:00,
2013-06-20 04:52:00,53.5,53.3,30.15,North,0,0.0,0.0,98,-99.99,,,-99.99,PWS SA v1.10,2013-06-20 08:52:00,
2013-06-20 04:58:00,53.5,53.2,30.15,North,0,0.0,0.0,98,-99.99,,,-99.99,PWS SA v1.10,2013-06-20 08:58:00,
2013-06-20 05:04:00,53.2,52.8,30.16,North,0,0.0,0.0,98,-99.99,,,-99.99,PWS SA v1.10,2013-06-20 09:04:00,
2013-06-20 05:10:00,53.2,52.8,30.15,North,0,0.0,0.0,98,-99.99,,,-99.99,PWS SA v1.10,2013-06-20 09:10:00,
2013-06-20 05:16:00,52.9,52.4,30.15,North,0,0.0,0.0,98,-99.99,,,-99.99,PWS SA v1.10,2013-06-20 09:16:00,
2013-06-20 05:22:00,52.7,52.4,30.16,North,0,0.0,0.0,98,-99.99,,,-99.99,PWS SA v1.10,2013-06-20 09:22:00,
2013-06-20 05:28:00,52.7,52.3,30.16,North,0,0.0,0.0,98,-99.99,,,-99.99,PWS SA v1.10,2013-06-20 09:28:00,
2013-06-20 05:34:00,52.6,52.2,30.16,North,0,0.0,0.0,98,-99.99,,,-99.99,PWS SA v1.10,2013-06-20 09:34:00,
2013-06-20 05:40:00,52.5,52.2,30.17,North,0,0.0,0.0,98,-99.99,,,-99.99,PWS SA v1.10,2013-06-20 09:40:00,
2013-06-20 05:46:00,52.6,52.3,30.17,North,0,0.0,0.0,99,-99.99,,,-99.99,PWS SA v1.10,2013-06-20 09:46:00,
2013-06-20 05:52:00,52.8,52.7,30.17,North,0,0.0,0.0,99,-99.99,,,-99.99,PWS SA v1.10,2013-06-20 09:52:00,
2013-06-20 05:58:00,52.8,52.6,30.18,North,0,0.0,0.0,99,-99.99,,,-99.99,PWS SA v1.10,2013-06-20 09:58:00,
2013-06-20 06:04:00,53.1,52.8,30.18,North,0,0.0,0.0,99,-99.99,,,-99.99,PWS SA v1.10,2013-06-20 10:04:00,
2013-06-20 06:10:00,53.2,52.9,30.18,North,0,0.0,0.0,98,-99.99,,,-99.99,PWS SA v1.10,2013-06-20 10:10:00,
2013-06-20 06:16:00,53.3,52.9,30.19,North,0,0.0,0.0,98,-99.99,,,-99.99,PWS SA v1.10,2013-06-20 10:16:00,
2013-06-20 06:22:00,53.7,53.4,30.19,North,0,0.0,0.0,99,-99.99,,,-99.99,PWS SA v1.10,2013-06-20 10:22:00,
2013-06-20 06:28:00,53.9,53.7,30.19,North,0,0.0,0.0,99,-99.99,,,-99.99,PWS SA v1.10,2013-06-20 10:28:00,
2013-06-20 06:34:00,54.1,53.6,30.18,North,0,0.0,0.0,98,-99.99,,,-99.99,PWS SA v1.10,2013-06-20 10:34:00,
2013-06-20 06:40:00,54.2,53.9,30.18,North,0,0.0,0.0,99,-99.99,,,-99.99,PWS SA v1.10,2013-06-20 10:40:00,
2013-06-20 06:46:00,54.5,53.8,30.19,North,0,0.0,0.0,98,-99.99,,,-99.99,PWS SA v1.10,2013-06-20 10:46:00,
2013-06-20 06:52:00,54.6,54.0,30.18,North,0,0.0,0.0,98,-99.99,,,-99.99,PWS SA v1.10,2013-06-20 10:52:00,
2013-06-20 06:58:00,55.0,54.2,30.19,North,0,0.0,0.0,97,-99.99,,,-99.99,PWS SA v1.10,2013-06-20 10:58:00,
2013-06-20 07:04:00,55.2,54.6,30.19,North,0,0.0,0.0,98,-99.99,,,-99.99,PWS SA v1.10,2013-06-20 11:04:00,
2013-06-20 07:10:00,55.6,55.0,30.20,North,0,0.0,0.0,98,-99.99,,,-99.99,PWS SA v1.10,2013-06-20 11:10:00,
2013-06-20 07:16:00,55.9,55.1,30.20,North,0,0.0,0.0,97,-99.99,,,-99.99,PWS SA v1.10,2013-06-20 11:16:00,
2013-06-20 07:22:00,56.1,55.0,30.21,North,0,0.0,0.0,96,-99.99,,,-99.99,PWS SA v1.10,2013-06-20 11:22:00,
2013-06-20 07:28:00,56.4,54.7,30.20,North,0,0.0,0.0,94,-99.99,,,-99.99,PWS SA v1.10,2013-06-20 11:28:00,
2013-06-20 07:34:00,56.8,54.5,30.20,North,0,0.0,0.0,93,-99.99,,,-99.99,PWS SA v1.10,2013-06-20 11:34:00,
2013-06-20 07:40:00,57.1,54.6,30.20,North,0,0.0,0.0,92,-99.99,,,-99.99,PWS SA v1.10,2013-06-20 11:40:00,
2013-06-20 07:46:00,57.7,54.9,30.21,North,0,0.0,0.0,91,-99.99,,,-99.99,PWS SA v1.10,2013-06-20 11:46:00,
2013-06-20 07:52:00,57.9,55.2,30.21,North,0,0.0,0.0,90,-99.99,,,-99.99,PWS SA v1.10,2013-06-20 11:52:00,
2013-06-20 07:58:00,58.1,55.4,30.21,North,0,0.0,0.0,91,-99.99,,,-99.99,PWS SA v1.10,2013-06-20 11:58:00,
2013-06-20 08:04:00,58.9,54.6,30.21,North,0,0.0,0.0,87,-99.99,,,-99.99,PWS SA v1.10,2013-06-20 12:04:00,
2013-06-20 08:10:00,59.3,54.9,30.20,North,0,0.0,0.0,86,-99.99,,,-99.99,PWS SA v1.10,2013-06-20 12:10:00,
2013-06-20 08:16:00,59.7,55.2,30.21,North,0,0.0,0.0,85,-99.99,,,-99.99,PWS SA v1.10,2013-06-20 12:16:00,
2013-06-20 08:22:00,60.2,55.2,30.21,North,0,0.0,0.0,84,-99.99,,,-99.99,PWS SA v1.10,2013-06-20 12:22:00,
2013-06-20 08:28:00,60.6,54.9,30.21,North,0,0.0,0.0,82,-99.99,,,-99.99,PWS SA v1.10,2013-06-20 12:28:00,
2013-06-20 08:34:00,61.0,54.6,30.21,North,0,0.0,0.0,79,-99.99,,,-99.99,PWS SA v1.10,2013-06-20 12:34:00,
2013-06-20 08:40:00,61.4,54.7,30.21,North,0,0.0,0.0,79,-99.99,,,-99.99,PWS SA v1.10,2013-06-20 12:40:00,
2013-06-20 08:46:00,61.9,54.8,30.21,North,0,0.0,0.0,78,-99.99,,,-99.99,PWS SA v1.10,2013-06-20 12:46:00,
2013-06-20 08:52:00,62.4,53.7,30.21,North,0,0.0,0.0,73,-99.99,,,-99.99,PWS SA v1.10,2013-06-20 12:52:00,
2013-06-20 08:58:00,62.7,54.0,30.21,North,0,0.0,0.0,73,-99.99,,,-99.99,PWS SA v1.10,2013-06-20 12:58:00,
2013-06-20 09:04:00,63.1,54.3,30.21,North,0,0.0,0.0,73,-99.99,,,-99.99,PWS SA v1.10,2013-06-20 13:04:00,
2013-06-20 09:10:00,63.5,53.7,30.21,North,0,0.0,0.0,71,-99.99,,,-99.99,PWS SA v1.10,2013-06-20 13:10:00,
2013-06-20 09:16:00,63.8,54.8,30.21,North,0,0.0,0.0,73,-99.99,,,-99.99,PWS SA v1.10,2013-06-20 13:16:00,
2013-06-20 09:22:00,64.1,54.1,30.20,North,0,0.0,0.0,70,-99.99,,,-99.99,PWS SA v1.10,2013-06-20 13:22:00,
2013-06-20 09:28:00,64.8,54.0,30.21,North,0,0.0,0.0,69,-99.99,,,-99.99,PWS SA v1.10,2013-06-20 13:28:00,
2013-06-20 09:34:00,65.3,54.8,30.21,North,0,0.0,0.0,69,-99.99,,,-99.99,PWS SA v1.10,2013-06-20 13:34:00,
2013-06-20 09:40:00,65.6,55.3,30.21,North,0,0.0,0.0,69,-99.99,,,-99.99,PWS SA v1.10,2013-06-20 13:40:00,
2013-06-20 09:46:00,65.9,54.1,30.20,North,0,0.0,0.0,66,-99.99,,,-99.99,PWS SA v1.10,2013-06-20 13:46:00,
2013-06-20 09:52:00,66.5,54.1,30.21,North,0,0.0,0.0,65,-99.99,,,-99.99,PWS SA v1.10,2013-06-20 13:52:00,
2013-06-20 09:58:00,67.0,54.4,30.21,North,0,0.0,0.0,64,-99.99,,,-99.99,PWS SA v1.10,2013-06-20 13:58:00,
2013-06-20 10:04:00,67.4,54.4,30.20,North,0,0.0,0.0,63,-99.99,,,-99.99,PWS SA v1.10,2013-06-20 14:04:00,
2013-06-20 10:10:00,67.8,55.0,30.21,North,0,0.0,0.0,64,-99.99,,,-99.99,PWS SA v1.10,2013-06-20 14:10:00,
2013-06-20 10:16:00,68.1,55.9,30.20,North,0,0.0,0.0,65,-99.99,,,-99.99,PWS SA v1.10,2013-06-20 14:16:00,
2013-06-20 10:22:00,68.4,54.5,30.20,North,0,0.0,1.0,61,-99.99,,,-99.99,PWS SA v1.10,2013-06-20 14:22:00,
2013-06-20 10:28:00,68.9,55.0,30.20,North,0,0.0,1.0,62,-99.99,,,-99.99,PWS SA v1.10,2013-06-20 14:28:00,
2013-06-20 10:34:00,69.2,53.9,30.20,North,0,0.0,1.0,59,-99.99,,,-99.99,PWS SA v1.10,2013-06-20 14:34:00,
2013-06-20 10:40:00,69.1,53.9,30.20,North,0,0.0,3.0,58,-99.99,,,-99.99,PWS SA v1.10,2013-06-20 14:40:00,
2013-06-20 10:46:00,69.6,52.5,30.20,North,0,0.0,3.0,55,-99.99,,,-99.99,PWS SA v1.10,2013-06-20 14:46:00,
2013-06-20 10:52:00,70.0,52.7,30.20,North,0,0.0,3.0,54,-99.99,,,-99.99,PWS SA v1.10,2013-06-20 14:52:00,
2013-06-20 10:58:00,70.8,52.9,30.20,North,0,0.0,3.0,53,-99.99,,,-99.99,PWS SA v1.10,2013-06-20 14:58:00,
2013-06-20 11:04:00,71.2,53.1,30.20,North,0,0.0,5.0,53,-99.99,,,-99.99,PWS SA v1.10,2013-06-20 15:04:00,
2013-06-20 11:10:00,72.1,51.0,30.20,North,0,0.0,5.0,48,-99.99,,,-99.99,PWS SA v1.10,2013-06-20 15:10:00,
2013-06-20 11:16:00,72.3,53.2,30.20,North,0,0.0,0.0,51,-99.99,,,-99.99,PWS SA v1.10,2013-06-20 15:16:00,
2013-06-20 11:22:00,72.5,50.8,30.20,NNE,31,5.1,5.1,46,-99.99,,,-99.99,PWS SA v1.10,2013-06-20 15:22:00,
2013-06-20 11:28:00,72.9,56.0,30.20,SW,214,3.4,5.0,55,-99.99,,,-99.99,PWS SA v1.10,2013-06-20 15:28:00,
2013-06-20 11:34:00,72.7,55.0,30.20,North,0,0.0,5.0,53,-99.99,,,-99.99,PWS SA v1.10,2013-06-20 15:34:00,
2013-06-20 11:40:00,73.1,51.9,30.20,North,0,0.0,3.0,47,-99.99,,,-99.99,PWS SA v1.10,2013-06-20 15:40:00,
2013-06-20 11:46:00,74.3,51.9,30.20,North,0,0.0,5.0,46,-99.99,,,-99.99,PWS SA v1.10,2013-06-20 15:46:00,
2013-06-20 11:52:00,74.7,47.8,30.20,North,356,1.7,5.0,38,-99.99,,,-99.99,PWS SA v1.10,2013-06-20 15:52:00,
2013-06-20 11:58:00,74.7,49.9,30.20,NE,45,3.4,5.0,42,-99.99,,,-99.99,PWS SA v1.10,2013-06-20 15:58:00,
2013-06-20 12:04:00,74.9,52.6,30.20,North,0,0.0,3.0,46,-99.99,,,-99.99,PWS SA v1.10,2013-06-20 16:04:00,
2013-06-20 12:10:00,75.3,53.4,30.20,North,0,0.0,3.0,46,-99.99,,,-99.99,PWS SA v1.10,2013-06-20 16:10:00,
2013-06-20 12:16:00,76.0,54.1,30.20,North,0,0.0,5.0,47,-99.99,,,-99.99,PWS SA v1.10,2013-06-20 16:16:00,
2013-06-20 12:22:00,76.4,53.1,30.20,North,0,0.0,5.0,44,-99.99,,,-99.99,PWS SA v1.10,2013-06-20 16:22:00,
2013-06-20 12:28:00,76.1,52.2,30.19,WSW,240,3.4,5.0,43,-99.99,,,-99.99,PWS SA v1.10,2013-06-20 16:28:00,
2013-06-20 12:34:00,76.7,54.0,30.19,East,100,1.7,3.0,45,-99.99,,,-99.99,PWS SA v1.10,2013-06-20 16:34:00,
2013-06-20 12:40:00,76.6,53.3,30.19,North,0,0.0,3.0,44,-99.99,,,-99.99,PWS SA v1.10,2013-06-20 16:40:00,
2013-06-20 12:46:00,76.7,51.3,30.20,WNW,302,1.7,1.7,41,-99.99,,,-99.99,PWS SA v1.10,2013-06-20 16:46:00,
2013-06-20 12:52:00,77.3,55.5,30.19,North,0,0.0,1.0,47,-99.99,,,-99.99,PWS SA v1.10,2013-06-20 16:52:00,
2013-06-20 12:58:00,77.2,52.3,30.20,North,0,0.0,1.0,42,-99.99,,,-99.99,PWS SA v1.10,2013-06-20 16:58:00,
2013-06-20 13:04:00,77.6,52.9,30.20,North,0,0.0,1.0,42,-99.99,,,-99.99,PWS SA v1.10,2013-06-20 17:04:00,
2013-06-20 13:10:00,77.6,54.1,30.20,North,0,0.0,1.0,44,-99.99,,,-99.99,PWS SA v1.10,2013-06-20 17:10:00,
2013-06-20 13:16:00,77.3,50.6,30.20,North,0,0.0,5.0,39,-99.99,,,-99.99,PWS SA v1.10,2013-06-20 17:16:00,
2013-06-20 13:22:00,78.1,54.7,30.19,North,0,0.0,5.0,44,-99.99,,,-99.99,PWS SA v1.10,2013-06-20 17:22:00,
2013-06-20 13:28:00,78.9,55.4,30.19,North,0,0.0,5.0,44,-99.99,,,-99.99,PWS SA v1.10,2013-06-20 17:28:00,
2013-06-20 13:34:00,78.5,52.1,30.19,North,0,0.0,3.0,40,-99.99,,,-99.99,PWS SA v1.10,2013-06-20 17:34:00,
2013-06-20 13:40:00,78.8,53.2,30.19,North,0,0.0,3.0,41,-99.99,,,-99.99,PWS SA v1.10,2013-06-20 17:40:00,
2013-06-20 13:46:00,79.4,55.4,30.18,SE,134,1.7,1.7,43,-99.99,,,-99.99,PWS SA v1.10,2013-06-20 17:46:00,
2013-06-20 13:52:00,79.4,54.4,30.18,North,0,0.0,3.0,42,-99.99,,,-99.99,PWS SA v1.10,2013-06-20 17:52:00,
2013-06-20 13:58:00,79.1,52.0,30.18,North,0,0.0,3.0,39,-99.99,,,-99.99,PWS SA v1.10,2013-06-20 17:58:00,
2013-06-20 14:04:00,79.6,55.1,30.18,North,0,0.0,0.0,43,-99.99,,,-99.99,PWS SA v1.10,2013-06-20 18:04:00,
2013-06-20 14:10:00,79.4,53.5,30.19,North,0,0.0,1.0,40,-99.99,,,-99.99,PWS SA v1.10,2013-06-20 18:10:00,
2013-06-20 14:16:00,79.3,54.2,30.18,North,0,0.0,1.0,42,-99.99,,,-99.99,PWS SA v1.10,2013-06-20 18:16:00,
2013-06-20 14:22:00,80.1,53.1,30.18,SSE,155,1.7,3.0,39,-99.99,,,-99.99,PWS SA v1.10,2013-06-20 18:22:00,
2013-06-20 14:28:00,80.9,53.4,30.18,NW,305,3.4,3.4,38,-99.99,,,-99.99,PWS SA v1.10,2013-06-20 18:28:00,
2013-06-20 14:34:00,79.5,53.3,30.18,North,0,0.0,3.0,40,-99.99,,,-99.99,PWS SA v1.10,2013-06-20 18:34:00,
2013-06-20 14:40:00,78.4,56.4,30.18,North,0,0.0,3.0,46,-99.99,,,-99.99,PWS SA v1.10,2013-06-20 18:40:00,
2013-06-20 14:46:00,79.7,52.4,30.18,WNW,296,1.7,6.0,39,-99.99,,,-99.99,PWS SA v1.10,2013-06-20 18:46:00,
2013-06-20 14:52:00,80.2,51.4,30.17,North,0,0.0,6.0,37,-99.99,,,-99.99,PWS SA v1.10,2013-06-20 18:52:00,
2013-06-20 14:58:00,80.7,53.8,30.17,North,0,0.0,6.0,39,-99.99,,,-99.99,PWS SA v1.10,2013-06-20 18:58:00,
2013-06-20 15:04:00,80.8,53.8,30.18,North,0,0.0,3.0,39,-99.99,,,-99.99,PWS SA v1.10,2013-06-20 19:04:00,
2013-06-20 15:10:00,81.1,55.4,30.17,North,0,0.0,3.0,42,-99.99,,,-99.99,PWS SA v1.10,2013-06-20 19:10:00,
2013-06-20 15:16:00,80.4,52.6,30.17,North,0,0.0,3.0,38,-99.99,,,-99.99,PWS SA v1.10,2013-06-20 19:16:00,
2013-06-20 15:22:00,79.2,55.3,30.17,North,0,0.0,3.0,43,-99.99,,,-99.99,PWS SA v1.10,2013-06-20 19:22:00,
2013-06-20 15:28:00,78.9,53.9,30.16,North,0,0.0,3.0,42,-99.99,,,-99.99,PWS SA v1.10,2013-06-20 19:28:00,
2013-06-20 15:34:00,78.9,54.4,30.17,North,0,0.0,1.0,43,-99.99,,,-99.99,PWS SA v1.10,2013-06-20 19:34:00,
2013-06-20 15:40:00,77.9,51.8,30.17,North,0,0.0,3.0,40,-99.99,,,-99.99,PWS SA v1.10,2013-06-20 19:40:00,
2013-06-20 15:46:00,77.3,51.7,30.17,North,0,0.0,3.0,40,-99.99,,,-99.99,PWS SA v1.10,2013-06-20 19:46:00,
2013-06-20 15:52:00,77.1,56.1,30.16,North,0,0.0,3.0,48,-99.99,,,-99.99,PWS SA v1.10,2013-06-20 19:52:00,
2013-06-20 15:58:00,77.1,53.5,30.17,South,180,1.7,3.0,44,-99.99,,,-99.99,PWS SA v1.10,2013-06-20 19:58:00,
2013-06-20 16:04:00,77.3,52.0,30.16,SW,222,1.7,3.0,41,-99.99,,,-99.99,PWS SA v1.10,2013-06-20 20:04:00,
2013-06-20 16:10:00,77.0,53.9,30.17,North,0,0.0,3.0,44,-99.99,,,-99.99,PWS SA v1.10,2013-06-20 20:10:00,
2013-06-20 16:16:00,76.6,52.6,30.15,North,0,0.0,1.0,43,-99.99,,,-99.99,PWS SA v1.10,2013-06-20 20:16:00,
2013-06-20 16:22:00,76.8,54.3,30.16,North,0,0.0,1.0,46,-99.99,,,-99.99,PWS SA v1.10,2013-06-20 20:22:00,
2013-06-20 16:28:00,77.1,53.5,30.16,WNW,285,1.7,3.0,44,-99.99,,,-99.99,PWS SA v1.10,2013-06-20 20:28:00,
2013-06-20 16:34:00,77.1,51.8,30.16,NNW,343,3.4,8.0,41,-99.99,,,-99.99,PWS SA v1.10,2013-06-20 20:34:00,
2013-06-20 16:40:00,77.1,52.8,30.16,North,0,0.0,8.0,43,-99.99,,,-99.99,PWS SA v1.10,2013-06-20 20:40:00,
2013-06-20 16:46:00,76.8,53.0,30.16,North,0,0.0,8.0,43,-99.99,,,-99.99,PWS SA v1.10,2013-06-20 20:46:00,
2013-06-20 16:52:00,77.1,52.9,30.15,North,0,0.0,3.0,43,-99.99,,,-99.99,PWS SA v1.10,2013-06-20 20:52:00,
2013-06-20 16:58:00,76.8,52.9,30.15,North,0,0.0,3.0,43,-99.99,,,-99.99,PWS SA v1.10,2013-06-20 20:58:00,
2013-06-20 17:04:00,77.1,53.0,30.15,North,0,0.0,3.0,43,-99.99,,,-99.99,PWS SA v1.10,2013-06-20 21:04:00,
2013-06-20 17:10:00,77.0,52.4,30.15,West,259,1.7,6.0,42,-99.99,,,-99.99,PWS SA v1.10,2013-06-20 21:10:00,
2013-06-20 17:16:00,76.6,52.0,30.15,North,350,3.4,6.0,42,-99.99,,,-99.99,PWS SA v1.10,2013-06-20 21:16:00,
2013-06-20 17:22:00,76.6,53.2,30.16,NW,321,3.4,6.0,44,-99.99,,,-99.99,PWS SA v1.10,2013-06-20 21:22:00,
2013-06-20 17:28:00,76.3,53.7,30.16,North,0,0.0,3.0,45,-99.99,,,-99.99,PWS SA v1.10,2013-06-20 21:28:00,
2013-06-20 17:34:00,76.7,52.3,30.15,WNW,289,1.7,3.0,43,-99.99,,,-99.99,PWS SA v1.10,2013-06-20 21:34:00,
2013-06-20 17:40:00,76.7,53.6,30.15,WNW,296,1.7,1.7,45,-99.99,,,-99.99,PWS SA v1.10,2013-06-20 21:40:00,
2013-06-20 17:46:00,76.8,53.0,30.15,North,0,0.0,1.0,44,-99.99,,,-99.99,PWS SA v1.10,2013-06-20 21:46:00,
2013-06-20 17:52:00,76.7,52.4,30.15,SE,138,3.4,3.4,42,-99.99,,,-99.99,PWS SA v1.10,2013-06-20 21:52:00,
2013-06-20 17:58:00,76.8,52.6,30.15,NW,320,5.1,5.1,43,-99.99,,,-99.99,PWS SA v1.10,2013-06-20 21:58:00,
2013-06-20 18:04:00,76.9,52.9,30.15,WNW,302,3.4,5.0,44,-99.99,,,-99.99,PWS SA v1.10,2013-06-20 22:04:00,
2013-06-20 18:10:00,76.7,53.0,30.15,South,171,1.7,5.0,44,-99.99,,,-99.99,PWS SA v1.10,2013-06-20 22:10:00,
2013-06-20 18:16:00,76.4,54.2,30.15,North,0,0.0,5.0,46,-99.99,,,-99.99,PWS SA v1.10,2013-06-20 22:16:00,
2013-06-20 18:22:00,76.2,51.9,30.15,North,0,0.0,3.0,43,-99.99,,,-99.99,PWS SA v1.10,2013-06-20 22:22:00,
2013-06-20 18:28:00,75.8,56.1,30.16,North,0,0.0,3.0,50,-99.99,,,-99.99,PWS SA v1.10,2013-06-20 22:28:00,
2013-06-20 18:34:00,75.5,54.1,30.16,North,0,0.0,3.0,47,-99.99,,,-99.99,PWS SA v1.10,2013-06-20 22:34:00,
2013-06-20 18:40:00,75.2,52.4,30.16,WSW,246,1.7,5.0,45,-99.99,,,-99.99,PWS SA v1.10,2013-06-20 22:40:00,
2013-06-20 18:46:00,74.9,53.0,30.15,North,0,0.0,5.0,46,-99.99,,,-99.99,PWS SA v1.10,2013-06-20 22:46:00,
2013-06-20 18:52:00,74.1,55.8,30.16,North,0,0.0,1.0,52,-99.99,,,-99.99,PWS SA v1.10,2013-06-20 22:52:00,
2013-06-20 18:58:00,73.6,54.8,30.15,North,0,0.0,0.0,51,-99.99,,,-99.99,PWS SA v1.10,2013-06-20 22:58:00,
2013-06-20 19:04:00,73.5,54.0,30.15,North,0,0.0,0.0,50,-99.99,,,-99.99,PWS SA v1.10,2013-06-20 23:04:00,
2013-06-20 19:10:00,72.9,55.3,30.15,North,0,0.0,0.0,54,-99.99,,,-99.99,PWS SA v1.10,2013-06-20 23:10:00,
2013-06-20 19:16:00,72.5,56.8,30.16,North,0,0.0,0.0,57,-99.99,,,-99.99,PWS SA v1.10,2013-06-20 23:16:00,
2013-06-20 19:22:00,71.9,56.2,30.16,North,0,0.0,0.0,57,-99.99,,,-99.99,PWS SA v1.10,2013-06-20 23:22:00,
2013-06-20 19:28:00,71.5,56.0,30.16,North,0,0.0,0.0,58,-99.99,,,-99.99,PWS SA v1.10,2013-06-20 23:28:00,
2013-06-20 19:34:00,71.1,55.9,30.16,North,0,0.0,0.0,59,-99.99,,,-99.99,PWS SA v1.10,2013-06-20 23:34:00,
2013-06-20 19:40:00,70.8,55.9,30.16,North,0,0.0,0.0,59,-99.99,,,-99.99,PWS SA v1.10,2013-06-20 23:40:00,
2013-06-20 19:46:00,70.3,55.7,30.16,North,0,0.0,0.0,59,-99.99,,,-99.99,PWS SA v1.10,2013-06-20 23:46:00,
2013-06-20 19:52:00,69.9,55.9,30.16,North,0,0.0,0.0,61,-99.99,,,-99.99,PWS SA v1.10,2013-06-20 23:52:00,
2013-06-20 19:58:00,69.5,55.8,30.16,North,0,0.0,0.0,61,-99.99,,,-99.99,PWS SA v1.10,2013-06-20 23:58:00,
2013-06-20 20:04:00,69.2,55.5,30.16,North,0,0.0,0.0,61,-99.99,,,-99.99,PWS SA v1.10,2013-06-21 00:04:00,
2013-06-20 20:10:00,68.8,55.5,30.17,North,0,0.0,0.0,62,-99.99,,,-99.99,PWS SA v1.10,2013-06-21 00:10:00,
2013-06-20 20:16:00,68.5,56.0,30.17,North,0,0.0,0.0,64,-99.99,,,-99.99,PWS SA v1.10,2013-06-21 00:16:00,
2013-06-20 20:22:00,68.1,55.8,30.17,North,0,0.0,0.0,65,-99.99,,,-99.99,PWS SA v1.10,2013-06-21 00:22:00,
2013-06-20 20:28:00,68.0,55.4,30.17,North,0,0.0,0.0,64,-99.99,,,-99.99,PWS SA v1.10,2013-06-21 00:28:00,
2013-06-20 20:34:00,67.7,55.2,30.17,North,0,0.0,0.0,64,-99.99,,,-99.99,PWS SA v1.10,2013-06-21 00:34:00,
2013-06-20 20:40:00,67.7,55.3,30.17,North,0,0.0,0.0,65,-99.99,,,-99.99,PWS SA v1.10,2013-06-21 00:40:00,
2013-06-20 20:46:00,67.6,55.8,30.17,North,0,0.0,0.0,66,-99.99,,,-99.99,PWS SA v1.10,2013-06-21 00:46:00,
2013-06-20 20:52:00,67.5,56.1,30.17,North,0,0.0,1.0,66,-99.99,,,-99.99,PWS SA v1.10,2013-06-21 00:52:00,
2013-06-20 20:58:00,67.4,55.9,30.17,North,0,0.0,1.0,66,-99.99,,,-99.99,PWS SA v1.10,2013-06-21 00:58:00,
2013-06-20 21:04:00,67.2,56.0,30.17,North,0,0.0,0.0,67,-99.99,,,-99.99,PWS SA v1.10,2013-06-21 01:04:00,
2013-06-20 21:10:00,67.1,56.2,30.17,North,0,0.0,0.0,68,-99.99,,,-99.99,PWS SA v1.10,2013-06-21 01:10:00,
2013-06-20 21:16:00,66.8,56.9,30.18,North,0,0.0,0.0,70,-99.99,,,-99.99,PWS SA v1.10,2013-06-21 01:16:00,
2013-06-20 21:22:00,66.7,56.8,30.18,North,0,0.0,1.0,70,-99.99,,,-99.99,PWS SA v1.10,2013-06-21 01:22:00,
2013-06-20 21:28:00,66.7,56.5,30.19,North,0,0.0,1.0,70,-99.99,,,-99.99,PWS SA v1.10,2013-06-21 01:28:00,
2013-06-20 21:34:00,66.5,57.3,30.19,North,0,0.0,0.0,72,-99.99,,,-99.99,PWS SA v1.10,2013-06-21 01:34:00,
2013-06-20 21:40:00,66.2,57.5,30.19,North,0,0.0,0.0,73,-99.99,,,-99.99,PWS SA v1.10,2013-06-21 01:40:00,
2013-06-20 21:46:00,65.9,57.2,30.20,North,0,0.0,0.0,73,-99.99,,,-99.99,PWS SA v1.10,2013-06-21 01:46:00,
2013-06-20 21:52:00,65.8,57.6,30.19,North,0,0.0,0.0,74,-99.99,,,-99.99,PWS SA v1.10,2013-06-21 01:52:00,
2013-06-20 21:58:00,65.5,57.6,30.20,North,0,0.0,0.0,75,-99.99,,,-99.99,PWS SA v1.10,2013-06-21 01:58:00,
2013-06-20 22:04:00,65.4,57.6,30.19,North,0,0.0,0.0,75,-99.99,,,-99.99,PWS SA v1.10,2013-06-21 02:04:00,
2013-06-20 22:10:00,65.4,57.2,30.19,North,0,0.0,0.0,75,-99.99,,,-99.99,PWS SA v1.10,2013-06-21 02:10:00,
2013-06-20 22:16:00,65.4,57.8,30.19,North,0,0.0,0.0,76,-99.99,,,-99.99,PWS SA v1.10,2013-06-21 02:16:00,
2013-06-20 22:22:00,65.3,57.8,30.19,North,0,0.0,0.0,76,-99.99,,,-99.99,PWS SA v1.10,2013-06-21 02:22:00,
2013-06-20 22:28:00,65.1,58.1,30.19,North,0,0.0,0.0,77,-99.99,,,-99.99,PWS SA v1.10,2013-06-21 02:28:00,
2013-06-20 22:34:00,65.0,58.0,30.19,North,0,0.0,0.0,77,-99.99,,,-99.99,PWS SA v1.10,2013-06-21 02:34:00,
2013-06-20 22:40:00,64.8,58.1,30.19,North,0,0.0,0.0,78,-99.99,,,-99.99,PWS SA v1.10,2013-06-21 02:40:00,
2013-06-20 22:46:00,64.7,58.0,30.19,North,0,0.0,0.0,78,-99.99,,,-99.99,PWS SA v1.10,2013-06-21 02:46:00,
2013-06-20 22:52:00,64.5,58.2,30.19,North,0,0.0,0.0,79,-99.99,,,-99.99,PWS SA v1.10,2013-06-21 02:52:00,
2013-06-20 22:58:00,64.5,58.2,30.19,North,0,0.0,0.0,79,-99.99,,,-99.99,PWS SA v1.10,2013-06-21 02:58:00,
2013-06-20 23:04:00,64.3,58.2,30.19,North,0,0.0,0.0,79,-99.99,,,-99.99,PWS SA v1.10,2013-06-21 03:04:00,
2013-06-20 23:10:00,64.1,58.2,30.19,North,0,0.0,0.0,81,-99.99,,,-99.99,PWS SA v1.10,2013-06-21 03:10:00,
2013-06-20 23:16:00,63.9,58.3,30.19,North,0,0.0,0.0,81,-99.99,,,-99.99,PWS SA v1.10,2013-06-21 03:16:00,
2013-06-20 23:22:00,63.9,58.2,30.19,North,0,0.0,0.0,81,-99.99,,,-99.99,PWS SA v1.10,2013-06-21 03:22:00,
2013-06-20 23:28:00,63.7,57.9,30.18,North,0,0.0,0.0,81,-99.99,,,-99.99,PWS SA v1.10,2013-06-21 03:28:00,
2013-06-20 23:34:00,63.6,58.0,30.19,SSE,162,1.7,1.7,81,-99.99,,,-99.99,PWS SA v1.10,2013-06-21 03:34:00,
2013-06-20 23:40:00,63.5,57.8,30.20,North,0,0.0,1.0,81,-99.99,,,-99.99,PWS SA v1.10,2013-06-21 03:40:00,
2013-06-20 23:46:00,63.3,57.8,30.20,ESE,110,1.7,1.7,81,-99.99,,,-99.99,PWS SA v1.10,2013-06-21 03:46:00,
2013-06-20 23:52:00,63.2,57.6,30.20,North,0,0.0,1.0,81,-99.99,,,-99.99,PWS SA v1.10,2013-06-21 03:52:00,
2013-06-20 23:58:00,63.1,57.8,30.20,North,0,0.0,1.0,82,-99.99,,,-99.99,PWS SA v1.10,2013-06-21 03:58:00,